createdAt,value
2018-06-10T00:00:18.173Z,4.12
2018-06-10T00:01:22.287Z,4.05
2018-06-10T00:02:26.463Z,4.00
2018-06-10T00:03:30.523Z,3.90
2018-06-10T00:04:34.657Z,3.50
2018-06-10T00:05:38.829Z,3.55
2018-06-10T00:06:42.992Z,3.50
2018-06-10T00:07:47.237Z,3.72
2018-06-10T00:08:51.374Z,3.95
2018-06-10T00:09:55.483Z,3.52
2018-06-10T00:10:59.658Z,3.92
2018-06-10T00:12:03.829Z,3.83
2018-06-10T00:13:07.659Z,4.12
2018-06-10T00:14:11.338Z,4.12
2018-06-10T00:15:15.044Z,3.85
2018-06-10T00:16:18.761Z,3.70
2018-06-10T00:17:22.723Z,3.08
2018-06-10T00:18:26.907Z,3.05
2018-06-10T00:19:31.009Z,3.50
2018-06-10T00:20:34.847Z,3.52
2018-06-10T00:21:38.834Z,3.12
2018-06-10T00:22:42.955Z,3.27
2018-06-10T00:23:47.044Z,3.10
2018-06-10T00:24:51.135Z,3.10
2018-06-10T00:25:55.209Z,3.00
2018-06-10T00:26:59.379Z,3.27
2018-06-10T00:28:03.429Z,2.95
2018-06-10T00:29:12.940Z,2.90
2018-06-10T00:30:17.141Z,2.60
2018-06-10T00:31:21.233Z,2.95
2018-06-10T00:32:25.356Z,2.92
2018-06-10T00:33:29.449Z,3.15
2018-06-10T00:34:33.559Z,3.15
2018-06-10T00:35:37.709Z,2.80
2018-06-10T00:36:41.787Z,3.08
2018-06-10T00:37:46.077Z,3.30
2018-06-10T00:38:50.296Z,3.67
2018-06-10T00:39:54.331Z,3.35
2018-06-10T00:40:58.488Z,3.40
2018-06-10T00:42:02.580Z,3.37
2018-06-10T00:43:06.666Z,3.30
2018-06-10T00:44:10.773Z,3.30
2018-06-10T00:45:14.895Z,3.20
2018-06-10T00:46:18.971Z,3.47
2018-06-10T00:47:23.107Z,3.40
2018-06-10T00:48:27.145Z,3.17
2018-06-10T00:49:31.307Z,3.15
2018-06-10T00:50:35.387Z,3.33
2018-06-10T00:51:39.457Z,3.47
2018-06-10T00:52:43.559Z,3.72
2018-06-10T00:53:47.692Z,3.70
2018-06-10T00:54:51.794Z,3.35
2018-06-10T00:55:55.868Z,3.42
2018-06-10T00:56:59.990Z,3.60
2018-06-10T00:58:04.218Z,3.08
2018-06-10T00:59:08.325Z,3.37
2018-06-10T01:00:12.469Z,3.67
2018-06-10T01:01:16.605Z,3.75
2018-06-10T01:02:20.766Z,4.12
2018-06-10T01:03:24.941Z,3.70
2018-06-10T01:04:29.061Z,3.80
2018-06-10T01:05:33.156Z,4.22
2018-06-10T01:06:37.273Z,3.80
2018-06-10T01:07:47.227Z,3.85
2018-06-10T01:08:57.179Z,3.42
2018-06-10T01:10:07.108Z,3.52
2018-06-10T01:11:17.153Z,3.85
2018-06-10T01:12:27.133Z,3.60
2018-06-10T01:13:37.256Z,3.52
2018-06-10T01:14:41.140Z,3.33
2018-06-10T01:15:45.091Z,3.50
2018-06-10T01:16:49.246Z,3.33
2018-06-10T01:17:53.303Z,3.50
2018-06-10T01:18:57.494Z,3.40
2018-06-10T01:20:01.727Z,3.90
2018-06-10T01:21:05.794Z,3.37
2018-06-10T01:22:09.906Z,3.52
2018-06-10T01:23:14.093Z,3.70
2018-06-10T01:24:18.225Z,3.40
2018-06-10T01:25:22.377Z,3.60
2018-06-10T01:26:31.936Z,3.45
2018-06-10T01:27:36.009Z,3.47
2018-06-10T01:28:39.832Z,3.33
2018-06-10T01:29:43.814Z,3.33
2018-06-10T01:30:47.642Z,3.37
2018-06-10T01:31:51.655Z,3.27
2018-06-10T01:32:55.765Z,3.17
2018-06-10T01:34:00.137Z,3.33
2018-06-10T01:35:04.287Z,3.55
2018-06-10T01:36:08.506Z,3.12
2018-06-10T01:37:12.607Z,3.30
2018-06-10T01:38:16.781Z,3.40
2018-06-10T01:39:21.072Z,2.90
2018-06-10T01:40:25.173Z,3.15
2018-06-10T01:41:29.247Z,3.22
2018-06-10T01:42:33.347Z,3.50
2018-06-10T01:43:37.503Z,3.60
2018-06-10T01:44:41.664Z,3.45
2018-06-10T01:45:45.788Z,3.72
2018-06-10T01:46:49.952Z,3.52
2018-06-10T01:47:54.108Z,3.35
2018-06-10T01:48:58.184Z,4.03
2018-06-10T01:50:02.047Z,3.55
2018-06-10T01:51:06.020Z,3.72
2018-06-10T01:52:10.120Z,3.60
2018-06-10T01:53:14.648Z,3.87
2018-06-10T01:54:18.807Z,3.80
2018-06-10T01:55:22.980Z,3.83
2018-06-10T01:56:27.109Z,3.70
2018-06-10T01:57:31.313Z,4.00
2018-06-10T01:58:35.427Z,4.15
2018-06-10T01:59:39.560Z,3.55
2018-06-10T02:00:43.747Z,3.72
2018-06-10T02:01:47.874Z,3.87
2018-06-10T02:02:52.017Z,3.90
2018-06-10T02:03:56.171Z,4.15
2018-06-10T02:05:00.235Z,3.52
2018-06-10T02:06:04.087Z,4.35
2018-06-10T02:07:08.136Z,3.92
2018-06-10T02:08:12.248Z,3.50
2018-06-10T02:09:16.335Z,3.47
2018-06-10T02:10:20.162Z,3.25
2018-06-10T02:11:23.879Z,3.75
2018-06-10T02:12:27.864Z,3.75
2018-06-10T02:13:31.965Z,4.03
2018-06-10T02:14:36.106Z,3.50
2018-06-10T02:15:40.211Z,3.90
2018-06-10T02:16:44.357Z,3.27
2018-06-10T02:17:48.420Z,3.50
2018-06-10T02:18:52.534Z,3.37
2018-06-10T02:19:56.367Z,3.70
2018-06-10T02:21:00.334Z,3.35
2018-06-10T02:22:04.535Z,3.52
2018-06-10T02:23:08.759Z,3.70
2018-06-10T02:24:12.897Z,3.08
2018-06-10T02:25:17.038Z,3.15
2018-06-10T02:26:21.185Z,3.30
2018-06-10T02:27:25.295Z,3.52
2018-06-10T02:28:29.393Z,3.80
2018-06-10T02:29:33.509Z,3.40
2018-06-10T02:30:37.609Z,3.75
2018-06-10T02:31:41.759Z,3.22
2018-06-10T02:32:45.871Z,3.30
2018-06-10T02:33:50.040Z,3.40
2018-06-10T02:34:54.115Z,3.00
2018-06-10T02:35:58.327Z,3.30
2018-06-10T02:37:02.465Z,3.55
2018-06-10T02:38:06.693Z,4.05
2018-06-10T02:39:10.817Z,3.58
2018-06-10T02:40:14.943Z,3.35
2018-06-10T02:41:19.067Z,3.98
2018-06-10T02:42:23.252Z,3.45
2018-06-10T02:43:27.347Z,3.42
2018-06-10T02:44:31.476Z,3.58
2018-06-10T02:45:35.595Z,3.27
2018-06-10T02:46:39.769Z,3.27
2018-06-10T02:47:43.940Z,3.60
2018-06-10T02:48:47.821Z,3.70
2018-06-10T02:49:51.858Z,3.77
2018-06-10T02:50:55.969Z,4.05
2018-06-10T02:52:00.127Z,3.77
2018-06-10T02:53:04.276Z,3.90
2018-06-10T02:54:08.533Z,3.87
2018-06-10T02:55:12.660Z,4.10
2018-06-10T02:56:16.771Z,3.50
2018-06-10T02:57:20.923Z,3.87
2018-06-10T02:58:25.049Z,3.67
2018-06-10T02:59:29.164Z,4.10
2018-06-10T03:00:33.296Z,4.55
2018-06-10T03:01:37.347Z,4.53
2018-06-10T03:02:41.566Z,4.10
2018-06-10T03:03:45.699Z,4.12
2018-06-10T03:04:49.516Z,4.60
2018-06-10T03:05:53.473Z,4.60
2018-06-10T03:06:57.558Z,4.55
2018-06-10T03:08:01.711Z,4.45
2018-06-10T03:09:06.406Z,4.55
2018-06-10T03:10:10.419Z,4.15
2018-06-10T03:11:14.515Z,4.28
2018-06-10T03:12:18.670Z,4.90
2018-06-10T03:13:22.802Z,4.42
2018-06-10T03:14:26.907Z,4.72
2018-06-10T03:15:30.999Z,4.50
2018-06-10T03:16:35.107Z,4.20
2018-06-10T03:17:39.247Z,4.03
2018-06-10T03:18:43.375Z,4.50
2018-06-10T03:19:47.443Z,4.25
2018-06-10T03:20:51.531Z,4.60
2018-06-10T03:21:55.655Z,4.40
2018-06-10T03:22:59.757Z,4.85
2018-06-10T03:24:03.909Z,4.95
2018-06-10T03:25:08.008Z,4.85
2018-06-10T03:26:12.103Z,4.67
2018-06-10T03:27:16.294Z,4.30
2018-06-10T03:28:20.364Z,4.10
2018-06-10T03:29:24.395Z,4.30
2018-06-10T03:30:28.555Z,4.37
2018-06-10T03:31:32.767Z,5.00
2018-06-10T03:32:36.874Z,4.72
2018-06-10T03:33:41.068Z,5.03
2018-06-10T03:34:45.162Z,4.90
2018-06-10T03:35:49.325Z,4.70
2018-06-10T03:36:53.476Z,4.50
2018-06-10T03:37:57.657Z,4.60
2018-06-10T03:39:01.806Z,4.12
2018-06-10T03:40:06.013Z,4.60
2018-06-10T03:41:10.129Z,4.90
2018-06-10T03:42:14.192Z,4.47
2018-06-10T03:43:18.342Z,4.83
2018-06-10T03:44:22.452Z,4.45
2018-06-10T03:45:26.549Z,5.15
2018-06-10T03:46:30.410Z,4.30
2018-06-10T03:47:34.401Z,4.33
2018-06-10T03:48:38.522Z,4.40
2018-06-10T03:49:42.674Z,4.58
2018-06-10T03:50:46.821Z,4.58
2018-06-10T03:51:50.972Z,4.25
2018-06-10T03:52:55.100Z,5.20
2018-06-10T03:53:59.251Z,4.80
2018-06-10T03:55:03.392Z,4.72
2018-06-10T03:56:07.817Z,4.72
2018-06-10T03:57:12.034Z,4.90
2018-06-10T03:58:16.191Z,4.80
2018-06-10T03:59:20.366Z,4.70
2018-06-10T04:00:24.530Z,4.83
2018-06-10T04:01:28.642Z,4.97
2018-06-10T04:02:32.749Z,5.25
2018-06-10T04:03:36.903Z,5.12
2018-06-10T04:04:40.743Z,5.10
2018-06-10T04:05:44.763Z,4.90
2018-06-10T04:06:48.901Z,5.47
2018-06-10T04:07:53.085Z,5.42
2018-06-10T04:08:57.231Z,5.87
2018-06-10T04:10:01.353Z,5.70
2018-06-10T04:11:05.473Z,5.17
2018-06-10T04:12:09.544Z,6.17
2018-06-10T04:13:13.655Z,5.60
2018-06-10T04:14:17.859Z,6.22
2018-06-10T04:15:22.002Z,5.55
2018-06-10T04:16:28.225Z,6.12
2018-06-10T04:17:32.324Z,6.42
2018-06-10T04:18:36.469Z,6.40
2018-06-10T04:19:40.581Z,5.67
2018-06-10T04:20:44.633Z,5.70
2018-06-10T04:21:48.736Z,6.50
2018-06-10T04:22:52.794Z,5.83
2018-06-10T04:23:57.468Z,6.03
2018-06-10T04:25:01.544Z,6.70
2018-06-10T04:26:05.629Z,7.00
2018-06-10T04:27:09.737Z,6.90
2018-06-10T04:28:13.932Z,7.78
2018-06-10T04:29:17.820Z,6.78
2018-06-10T04:30:21.845Z,7.00
2018-06-10T04:31:25.963Z,7.20
2018-06-10T04:32:30.076Z,6.85
2018-06-10T04:33:34.276Z,6.62
2018-06-10T04:34:38.470Z,6.92
2018-06-10T04:35:42.585Z,6.87
2018-06-10T04:36:46.759Z,7.10
2018-06-10T04:37:50.898Z,6.70
2018-06-10T04:38:55.073Z,6.87
2018-06-10T04:39:59.239Z,6.60
2018-06-10T04:41:03.422Z,7.22
2018-06-10T04:42:07.510Z,6.92
2018-06-10T04:43:12.036Z,6.95
2018-06-10T04:44:16.076Z,7.62
2018-06-10T04:45:20.184Z,7.10
2018-06-10T04:46:24.304Z,7.03
2018-06-10T04:47:29.063Z,7.08
2018-06-10T04:48:33.157Z,7.15
2018-06-10T04:49:37.218Z,7.83
2018-06-10T04:50:41.331Z,7.20
2018-06-10T04:51:45.183Z,6.70
2018-06-10T04:52:49.170Z,6.50
2018-06-10T04:53:53.330Z,6.58
2018-06-10T04:54:57.537Z,6.72
2018-06-10T04:56:01.740Z,6.53
2018-06-10T04:57:06.032Z,6.90
2018-06-10T04:58:10.197Z,6.65
2018-06-10T04:59:14.290Z,7.03
2018-06-10T05:00:18.450Z,6.90
2018-06-10T05:01:22.580Z,6.47
2018-06-10T05:02:26.441Z,6.40
2018-06-10T05:03:30.527Z,6.60
2018-06-10T05:04:34.683Z,6.85
2018-06-10T05:05:38.770Z,7.15
2018-06-10T05:06:42.896Z,6.65
2018-06-10T05:07:46.984Z,6.85
2018-06-10T05:08:51.040Z,6.95
2018-06-10T05:09:55.295Z,6.80
2018-06-10T05:10:59.108Z,6.28
2018-06-10T05:12:02.842Z,6.50
2018-06-10T05:13:06.828Z,6.90
2018-06-10T05:14:10.924Z,6.67
2018-06-10T05:15:15.050Z,6.58
2018-06-10T05:16:19.126Z,6.85
2018-06-10T05:17:23.241Z,6.40
2018-06-10T05:18:27.445Z,6.42
2018-06-10T05:19:31.268Z,6.83
2018-06-10T05:20:35.266Z,6.90
2018-06-10T05:21:39.401Z,6.90
2018-06-10T05:22:43.569Z,6.42
2018-06-10T05:23:47.695Z,6.00
2018-06-10T05:24:51.802Z,6.25
2018-06-10T05:25:56.008Z,5.85
2018-06-10T05:27:00.180Z,6.37
2018-06-10T05:28:04.370Z,6.78
2018-06-10T05:29:08.522Z,6.75
2018-06-10T05:30:12.611Z,6.62
2018-06-10T05:31:16.691Z,6.30
2018-06-10T05:32:20.808Z,5.50
2018-06-10T05:33:24.928Z,6.08
2018-06-10T05:34:29.072Z,6.10
2018-06-10T05:35:33.185Z,6.17
2018-06-10T05:36:38.425Z,6.03
2018-06-10T05:37:42.481Z,6.22
2018-06-10T05:38:46.614Z,5.67
2018-06-10T05:39:50.491Z,6.12
2018-06-10T05:40:54.443Z,5.47
2018-06-10T05:41:58.631Z,5.50
2018-06-10T05:43:03.147Z,5.92
2018-06-10T05:44:07.242Z,5.87
2018-06-10T05:45:11.383Z,5.95
2018-06-10T05:46:15.559Z,5.70
2018-06-10T05:47:19.870Z,5.50
2018-06-10T05:48:23.985Z,5.97
2018-06-10T05:49:28.271Z,5.17
2018-06-10T05:50:32.083Z,5.45
2018-06-10T05:51:35.727Z,5.53
2018-06-10T05:52:39.848Z,5.17
2018-06-10T05:53:44.001Z,5.03
2018-06-10T05:54:48.124Z,5.03
2018-06-10T05:55:52.256Z,4.90
2018-06-10T05:56:56.336Z,5.20
2018-06-10T05:58:00.538Z,5.17
2018-06-10T05:59:04.639Z,5.45
2018-06-10T06:00:08.807Z,5.10
2018-06-10T06:01:12.975Z,5.33
2018-06-10T06:02:17.085Z,5.15
2018-06-10T06:03:21.220Z,5.22
2018-06-10T06:04:25.382Z,5.30
2018-06-10T06:05:29.504Z,5.78
2018-06-10T06:06:33.632Z,6.45
2018-06-10T06:07:37.775Z,5.40
2018-06-10T06:08:41.882Z,5.25
2018-06-10T06:09:46.010Z,5.22
2018-06-10T06:10:49.837Z,5.30
2018-06-10T06:11:53.852Z,5.45
2018-06-10T06:12:57.980Z,5.60
2018-06-10T06:14:02.012Z,5.70
2018-06-10T06:15:06.350Z,5.40
2018-06-10T06:16:10.392Z,5.40
2018-06-10T06:17:14.528Z,5.20
2018-06-10T06:18:18.696Z,4.70
2018-06-10T06:19:22.909Z,5.22
2018-06-10T06:20:27.005Z,5.28
2018-06-10T06:21:31.138Z,5.35
2018-06-10T06:22:36.308Z,4.97
2018-06-10T06:23:40.391Z,4.87
2018-06-10T06:24:44.544Z,5.20
2018-06-10T06:25:48.629Z,5.00
2018-06-10T06:26:52.764Z,6.03
2018-06-10T06:27:56.952Z,5.35
2018-06-10T06:29:01.182Z,5.05
2018-06-10T06:30:05.436Z,5.45
2018-06-10T06:31:09.581Z,5.00
2018-06-10T06:32:13.704Z,5.12
2018-06-10T06:33:17.805Z,5.08
2018-06-10T06:34:22.017Z,5.25
2018-06-10T06:35:25.829Z,5.45
2018-06-10T06:36:29.842Z,5.53
2018-06-10T06:37:33.957Z,5.65
2018-06-10T06:38:38.979Z,5.28
2018-06-10T06:39:43.114Z,5.10
2018-06-10T06:40:47.263Z,5.42
2018-06-10T06:41:51.391Z,5.17
2018-06-10T06:42:55.570Z,6.00
2018-06-10T06:43:59.780Z,5.75
2018-06-10T06:45:03.916Z,4.95
2018-06-10T06:46:08.057Z,5.22
2018-06-10T06:47:12.248Z,5.15
2018-06-10T06:48:16.323Z,5.87
2018-06-10T06:49:20.427Z,5.60
2018-06-10T06:50:24.545Z,5.60
2018-06-10T06:51:28.636Z,5.45
2018-06-10T06:52:32.704Z,5.67
2018-06-10T06:53:36.831Z,5.72
2018-06-10T06:54:40.904Z,6.05
2018-06-10T06:55:44.987Z,5.53
2018-06-10T06:56:49.254Z,5.28
2018-06-10T06:57:53.443Z,5.53
2018-06-10T06:58:57.519Z,5.53
2018-06-10T07:00:01.374Z,5.30
2018-06-10T07:01:05.436Z,5.28
2018-06-10T07:02:09.693Z,5.28
2018-06-10T07:03:13.896Z,5.50
2018-06-10T07:04:18.040Z,5.55
2018-06-10T07:05:22.085Z,5.62
2018-06-10T07:06:26.342Z,5.53
2018-06-10T07:07:30.169Z,5.20
2018-06-10T07:08:34.172Z,5.05
2018-06-10T07:09:38.327Z,5.58
2018-06-10T07:10:42.471Z,5.72
2018-06-10T07:11:46.591Z,5.62
2018-06-10T07:12:50.720Z,5.30
2018-06-10T07:13:54.905Z,4.90
2018-06-10T07:14:59.019Z,4.95
2018-06-10T07:16:03.127Z,5.67
2018-06-10T07:17:07.301Z,6.22
2018-06-10T07:18:11.433Z,6.08
2018-06-10T07:19:15.478Z,5.40
2018-06-10T07:20:19.378Z,5.92
2018-06-10T07:21:23.387Z,6.10
2018-06-10T07:22:27.567Z,5.97
2018-06-10T07:23:31.733Z,5.47
2018-06-10T07:24:35.897Z,5.78
2018-06-10T07:25:40.008Z,5.97
2018-06-10T07:26:44.376Z,5.80
2018-06-10T07:27:48.529Z,5.67
2018-06-10T07:28:52.690Z,5.30
2018-06-10T07:29:56.802Z,5.58
2018-06-10T07:31:00.999Z,5.42
2018-06-10T07:32:05.200Z,5.83
2018-06-10T07:33:09.327Z,5.45
2018-06-10T07:34:13.530Z,6.33
2018-06-10T07:35:17.633Z,5.90
2018-06-10T07:36:21.735Z,5.72
2018-06-10T07:37:25.864Z,5.78
2018-06-10T07:38:29.948Z,5.90
2018-06-10T07:39:34.102Z,6.22
2018-06-10T07:40:38.303Z,6.22
2018-06-10T07:41:42.515Z,6.22
2018-06-10T07:42:46.733Z,5.90
2018-06-10T07:43:50.847Z,6.00
2018-06-10T07:44:54.974Z,5.83
2018-06-10T07:45:58.852Z,5.58
2018-06-10T07:47:03.066Z,6.17
2018-06-10T07:48:07.105Z,5.55
2018-06-10T07:49:10.887Z,6.03
2018-06-10T07:50:14.606Z,5.55
2018-06-10T07:51:18.677Z,4.97
2018-06-10T07:52:22.749Z,5.67
2018-06-10T07:53:26.937Z,5.28
2018-06-10T07:54:31.061Z,5.47
2018-06-10T07:55:35.142Z,5.47
2018-06-10T07:56:39.316Z,5.53
2018-06-10T07:57:43.412Z,5.62
2018-06-10T07:58:47.488Z,6.35
2018-06-10T07:59:51.627Z,6.25
2018-06-10T08:00:55.789Z,6.50
2018-06-10T08:01:59.995Z,6.00
2018-06-10T08:03:04.092Z,6.37
2018-06-10T08:04:08.217Z,6.25
2018-06-10T08:05:12.375Z,6.67
2018-06-10T08:06:16.521Z,6.70
2018-06-10T08:07:20.696Z,6.92
2018-06-10T08:08:24.788Z,7.20
2018-06-10T08:09:28.999Z,6.28
2018-06-10T08:10:33.166Z,6.03
2018-06-10T08:11:37.278Z,6.40
2018-06-10T08:12:41.504Z,6.45
2018-06-10T08:13:45.643Z,6.90
2018-06-10T08:14:49.978Z,6.85
2018-06-10T08:15:54.797Z,6.83
2018-06-10T08:16:58.614Z,6.53
2018-06-10T08:18:02.859Z,6.58
2018-06-10T08:19:07.025Z,6.50
2018-06-10T08:20:11.569Z,6.80
2018-06-10T08:21:15.814Z,6.95
2018-06-10T08:22:20.018Z,6.70
2018-06-10T08:23:24.582Z,6.60
2018-06-10T08:24:28.825Z,6.22
2018-06-10T08:25:33.045Z,6.28
2018-06-10T08:26:37.035Z,6.10
2018-06-10T08:27:41.231Z,6.70
2018-06-10T08:28:45.691Z,6.95
2018-06-10T08:31:00.552Z,6.65
2018-06-10T08:32:04.835Z,6.95
2018-06-10T08:33:08.926Z,7.05
2018-06-10T08:34:13.018Z,7.28
2018-06-10T08:35:16.884Z,7.03
2018-06-10T08:36:20.973Z,6.72
2018-06-10T08:37:25.142Z,6.55
2018-06-10T08:38:29.391Z,6.58
2018-06-10T08:39:33.642Z,6.87
2018-06-10T08:40:37.879Z,7.42
2018-06-10T08:41:42.689Z,7.70
2018-06-10T08:42:46.815Z,7.35
2018-06-10T08:43:51.623Z,6.83
2018-06-10T08:44:55.893Z,6.75
2018-06-10T08:46:00.103Z,6.67
2018-06-10T08:47:04.473Z,7.28
2018-06-10T08:48:08.807Z,7.17
2018-06-10T08:49:13.268Z,6.83
2018-06-10T08:50:17.148Z,7.30
2018-06-10T08:51:21.276Z,6.28
2018-06-10T08:52:25.570Z,7.03
2018-06-10T08:53:29.712Z,6.85
2018-06-10T08:54:33.966Z,7.07
2018-06-10T08:55:38.155Z,6.90
2018-06-10T08:56:42.338Z,7.35
2018-06-10T08:57:46.415Z,7.28
2018-06-10T08:58:52.486Z,8.10
2018-06-10T08:59:58.309Z,7.20
2018-06-10T09:01:02.933Z,7.50
2018-06-10T09:02:07.711Z,7.10
2018-06-10T09:03:12.833Z,7.08
2018-06-10T09:04:17.635Z,7.43
2018-06-10T09:05:22.907Z,7.20
2018-06-10T09:06:27.046Z,7.17
2018-06-10T09:07:31.303Z,7.10
2018-06-10T09:08:35.878Z,7.63
2018-06-10T09:09:40.194Z,7.67
2018-06-10T09:10:44.582Z,6.83
2018-06-10T09:11:48.747Z,8.30
2018-06-10T09:12:53.007Z,7.23
2018-06-10T09:13:57.349Z,7.33
2018-06-10T09:15:01.546Z,7.63
2018-06-10T09:16:05.659Z,7.33
2018-06-10T09:17:09.831Z,7.33
2018-06-10T09:18:14.065Z,6.67
2018-06-10T09:19:18.216Z,7.07
2018-06-10T09:20:22.269Z,7.33
2018-06-10T09:21:26.414Z,7.17
2018-06-10T09:22:30.526Z,6.97
2018-06-10T09:23:34.666Z,7.20
2018-06-10T09:24:38.847Z,7.90
2018-06-10T09:25:43.108Z,7.03
2018-06-10T09:26:47.235Z,6.87
2018-06-10T09:27:51.396Z,7.57
2018-06-10T09:28:55.521Z,7.00
2018-06-10T09:29:59.647Z,7.43
2018-06-10T09:31:03.738Z,7.40
2018-06-10T09:32:07.921Z,7.03
2018-06-10T09:33:12.102Z,7.17
2018-06-10T09:34:16.253Z,6.60
2018-06-10T09:35:20.357Z,8.07
2018-06-10T09:36:24.470Z,7.17
2018-06-10T09:37:28.659Z,8.57
2018-06-10T09:38:32.482Z,8.40
2018-06-10T09:39:36.174Z,8.50
2018-06-10T09:40:39.931Z,7.90
2018-06-10T09:41:43.939Z,8.40
2018-06-10T09:42:47.763Z,8.07
2018-06-10T09:43:51.752Z,7.60
2018-06-10T09:44:55.941Z,7.10
2018-06-10T09:46:00.046Z,7.13
2018-06-10T09:47:04.220Z,7.17
2018-06-10T09:48:08.446Z,7.30
2018-06-10T09:49:12.558Z,7.70
2018-06-10T09:50:16.695Z,7.10
2018-06-10T09:51:20.866Z,7.70
2018-06-10T09:52:25.043Z,7.30
2018-06-10T09:53:29.275Z,7.20
2018-06-10T09:54:33.240Z,6.87
2018-06-10T09:55:37.279Z,6.97
2018-06-10T09:56:41.404Z,7.23
2018-06-10T09:57:45.599Z,6.90
2018-06-10T09:58:49.733Z,6.80
2018-06-10T09:59:53.853Z,7.77
2018-06-10T10:00:58.053Z,7.60
2018-06-10T10:02:02.197Z,7.63
2018-06-10T10:03:06.346Z,7.13
2018-06-10T10:04:10.511Z,7.00
2018-06-10T10:05:14.371Z,7.13
2018-06-10T10:06:18.358Z,7.33
2018-06-10T10:07:22.500Z,7.53
2018-06-10T10:08:26.308Z,7.43
2018-06-10T10:09:30.310Z,6.83
2018-06-10T10:10:34.152Z,7.40
2018-06-10T10:11:38.192Z,7.27
2018-06-10T10:12:42.387Z,7.20
2018-06-10T10:13:46.573Z,7.93
2018-06-10T10:14:50.756Z,7.17
2018-06-10T10:16:01.705Z,6.70
2018-06-10T10:17:05.782Z,6.83
2018-06-10T10:18:10.116Z,7.40
2018-06-10T10:19:14.250Z,6.53
2018-06-10T10:20:18.352Z,6.90
2018-06-10T10:21:22.406Z,6.93
2018-06-10T10:22:26.451Z,6.37
2018-06-10T10:23:30.606Z,6.63
2018-06-10T10:24:34.569Z,6.63
2018-06-10T10:25:38.606Z,6.97
2018-06-10T10:26:42.641Z,6.37
2018-06-10T10:27:46.736Z,6.37
2018-06-10T10:28:51.520Z,6.07
2018-06-10T10:29:55.413Z,6.70
2018-06-10T10:31:00.054Z,6.80
2018-06-10T10:32:04.186Z,6.80
2018-06-10T10:33:08.456Z,6.73
2018-06-10T10:34:12.659Z,6.80
2018-06-10T10:35:17.256Z,7.03
2018-06-10T10:36:21.417Z,6.13
2018-06-10T10:37:25.966Z,5.87
2018-06-10T10:38:30.149Z,6.40
2018-06-10T10:39:33.955Z,6.50
2018-06-10T10:40:37.988Z,6.40
2018-06-10T10:41:42.246Z,6.40
2018-06-10T10:42:46.363Z,6.00
2018-06-10T10:43:50.547Z,6.30
2018-06-10T10:44:54.652Z,6.30
2018-06-10T10:45:58.803Z,6.70
2018-06-10T10:47:02.926Z,6.70
2018-06-10T10:48:07.121Z,6.60
2018-06-10T10:49:11.265Z,7.10
2018-06-10T10:50:15.366Z,6.50
2018-06-10T10:51:19.492Z,6.60
2018-06-10T10:52:23.663Z,6.73
2018-06-10T10:53:27.775Z,6.13
2018-06-10T10:54:33.645Z,6.70
2018-06-10T10:55:37.785Z,6.90
2018-06-10T10:56:41.840Z,6.50
2018-06-10T10:57:45.929Z,6.30
2018-06-10T10:58:50.054Z,6.07
2018-06-10T10:59:54.145Z,6.57
2018-06-10T11:00:58.257Z,6.03
2018-06-10T11:02:02.358Z,5.80
2018-06-10T11:03:06.520Z,6.20
2018-06-10T11:04:10.648Z,6.63
2018-06-10T11:05:14.848Z,5.73
2018-06-10T11:06:18.831Z,6.03
2018-06-10T11:07:22.845Z,6.10
2018-06-10T11:08:26.978Z,6.37
2018-06-10T11:09:31.130Z,6.00
2018-06-10T11:10:35.303Z,5.60
2018-06-10T11:11:39.458Z,6.23
2018-06-10T11:12:43.534Z,5.70
2018-06-10T11:13:47.714Z,5.53
2018-06-10T11:14:51.832Z,6.13
2018-06-10T11:15:55.899Z,5.30
2018-06-10T11:17:00.085Z,5.70
2018-06-10T11:18:04.256Z,5.30
2018-06-10T11:19:08.462Z,5.57
2018-06-10T11:20:12.596Z,5.77
2018-06-10T11:21:16.672Z,6.00
2018-06-10T11:22:20.792Z,6.00
2018-06-10T11:23:24.882Z,5.87
2018-06-10T11:24:28.956Z,5.17
2018-06-10T11:25:33.112Z,5.80
2018-06-10T11:26:37.189Z,5.40
2018-06-10T11:27:41.296Z,5.80
2018-06-10T11:28:45.572Z,5.90
2018-06-10T11:29:49.665Z,5.60
2018-06-10T11:30:53.763Z,5.67
2018-06-10T11:31:57.945Z,5.20
2018-06-10T11:33:02.141Z,5.70
2018-06-10T11:34:07.238Z,5.63
2018-06-10T11:35:11.240Z,5.80
2018-06-10T11:36:15.102Z,6.23
2018-06-10T11:37:19.163Z,5.67
2018-06-10T11:38:23.315Z,5.73
2018-06-10T11:39:27.655Z,5.67
2018-06-10T11:40:31.812Z,5.63
2018-06-10T11:41:35.917Z,5.60
2018-06-10T11:42:40.156Z,5.33
2018-06-10T11:43:45.286Z,5.50
2018-06-10T11:44:49.501Z,5.70
2018-06-10T11:45:53.778Z,5.50
2018-06-10T11:46:57.880Z,5.73
2018-06-10T11:48:01.991Z,5.80
2018-06-10T11:49:06.177Z,5.97
2018-06-10T11:50:10.313Z,5.73
2018-06-10T11:51:14.489Z,5.50
2018-06-10T11:52:19.035Z,5.73
2018-06-10T11:53:23.149Z,5.43
2018-06-10T11:54:27.030Z,5.13
2018-06-10T11:55:31.093Z,5.50
2018-06-10T11:56:35.225Z,5.73
2018-06-10T11:57:39.421Z,5.50
2018-06-10T11:58:43.621Z,5.40
2018-06-10T11:59:47.772Z,5.87
2018-06-10T12:00:51.886Z,5.30
2018-06-10T12:01:56.058Z,6.23
2018-06-10T12:03:00.127Z,5.97
2018-06-10T12:04:04.392Z,5.90
2018-06-10T12:05:08.563Z,5.93
2018-06-10T12:06:12.768Z,6.20
2018-06-10T12:07:16.875Z,5.60
2018-06-10T12:08:21.047Z,5.07
2018-06-10T12:09:25.240Z,5.97
2018-06-10T12:10:29.388Z,6.03
2018-06-10T12:11:33.479Z,6.10
2018-06-10T12:12:37.664Z,5.40
2018-06-10T12:13:41.772Z,5.33
2018-06-10T12:14:45.564Z,5.90
2018-06-10T12:15:49.592Z,5.73
2018-06-10T12:16:53.718Z,5.97
2018-06-10T12:17:57.799Z,5.70
2018-06-10T12:19:01.905Z,5.93
2018-06-10T12:20:06.023Z,6.30
2018-06-10T12:21:10.202Z,6.20
2018-06-10T12:22:14.306Z,5.97
2018-06-10T12:23:18.475Z,6.23
2018-06-10T12:24:22.673Z,5.83
2018-06-10T12:25:26.802Z,5.80
2018-06-10T12:26:30.941Z,5.40
2018-06-10T12:27:35.030Z,6.37
2018-06-10T12:28:39.165Z,5.90
2018-06-10T12:29:43.314Z,5.70
2018-06-10T12:30:47.454Z,5.93
2018-06-10T12:31:51.604Z,6.27
2018-06-10T12:32:55.756Z,5.70
2018-06-10T12:33:59.843Z,5.47
2018-06-10T12:35:03.934Z,6.30
2018-06-10T12:36:08.018Z,6.70
2018-06-10T12:37:12.263Z,6.20
2018-06-10T12:38:16.318Z,6.27
2018-06-10T12:39:20.480Z,5.83
2018-06-10T12:40:24.562Z,6.50
2018-06-10T12:41:28.763Z,6.17
2018-06-10T12:42:32.901Z,5.80
2018-06-10T12:43:37.050Z,6.33
2018-06-10T12:44:41.243Z,5.73
2018-06-10T12:45:45.415Z,5.70
2018-06-10T12:46:49.520Z,5.43
2018-06-10T12:47:53.622Z,5.90
2018-06-10T12:48:57.726Z,5.90
2018-06-10T12:50:01.800Z,5.93
2018-06-10T12:51:06.108Z,6.03
2018-06-10T12:52:10.236Z,6.10
2018-06-10T12:53:14.998Z,6.50
2018-06-10T12:54:19.419Z,6.13
2018-06-10T12:55:23.967Z,6.12
2018-06-10T12:56:28.910Z,6.37
2018-06-10T12:57:34.137Z,6.27
2018-06-10T12:58:39.434Z,6.10
2018-06-10T12:59:44.413Z,5.80
2018-06-10T13:00:49.105Z,6.47
2018-06-10T13:01:53.049Z,5.92
2018-06-10T13:02:58.011Z,5.67
2018-06-10T13:04:03.506Z,5.65
2018-06-10T13:05:08.986Z,5.28
2018-06-10T13:06:14.297Z,5.45
2018-06-10T13:07:19.985Z,5.00
2018-06-10T13:08:25.822Z,4.58
2018-06-10T13:09:31.139Z,5.20
2018-06-10T13:10:36.573Z,5.22
2018-06-10T13:11:43.480Z,5.70
2018-06-10T13:12:49.433Z,5.17
2018-06-10T13:13:55.200Z,4.95
2018-06-10T13:15:01.397Z,5.10
2018-06-10T13:16:06.956Z,5.12
2018-06-10T13:17:12.046Z,5.30
2018-06-10T13:18:17.868Z,5.80
2018-06-10T13:19:25.518Z,5.20
2018-06-10T13:20:30.070Z,5.80
2018-06-10T13:21:35.299Z,6.15
2018-06-10T13:22:39.977Z,6.22
2018-06-10T13:23:44.508Z,6.72
2018-06-10T13:24:48.690Z,6.30
2018-06-10T13:25:53.567Z,6.17
2018-06-10T13:26:58.935Z,6.60
2018-06-10T13:28:02.988Z,5.45
2018-06-10T13:29:07.709Z,5.92
2018-06-10T13:30:12.234Z,6.40
2018-06-10T13:31:16.322Z,5.55
2018-06-10T13:32:20.493Z,6.25
2018-06-10T13:33:24.581Z,6.28
2018-06-10T13:34:28.739Z,6.60
2018-06-10T13:35:32.855Z,6.67
2018-06-10T13:36:36.971Z,6.75
2018-06-10T13:37:41.113Z,6.37
2018-06-10T13:38:44.930Z,6.70
2018-06-10T13:39:48.687Z,6.63
2018-06-10T13:40:52.712Z,5.80
2018-06-10T13:41:56.872Z,6.20
2018-06-10T13:43:01.168Z,5.87
2018-06-10T13:44:05.334Z,6.03
2018-06-10T13:45:09.548Z,6.03
2018-06-10T13:46:13.743Z,5.97
2018-06-10T13:47:18.082Z,6.23
2018-06-10T13:48:22.233Z,6.53
2018-06-10T13:49:26.390Z,6.67
2018-06-10T13:50:30.687Z,6.13
2018-06-10T13:51:35.191Z,6.07
2018-06-10T13:52:39.882Z,5.93
2018-06-10T13:53:44.057Z,5.93
2018-06-10T13:54:48.484Z,6.50
2018-06-10T13:55:52.720Z,6.53
2018-06-10T13:56:56.682Z,6.20
2018-06-10T13:58:01.100Z,6.67
2018-06-10T13:59:05.582Z,6.27
2018-06-10T14:00:09.849Z,6.50
2018-06-10T14:01:14.682Z,6.70
2018-06-10T14:02:18.967Z,6.90
2018-06-10T14:03:23.454Z,6.23
2018-06-10T14:04:27.796Z,6.73
2018-06-10T14:05:38.998Z,6.50
2018-06-10T14:06:52.906Z,6.07
2018-06-10T14:09:14.218Z,5.47
2018-06-10T14:10:25.241Z,5.77
2018-06-10T14:11:38.096Z,5.80
2018-06-10T14:12:47.365Z,6.10
2018-06-10T14:14:02.513Z,6.07
2018-06-10T14:15:13.324Z,6.00
2018-06-10T14:16:24.128Z,5.90
2018-06-10T14:17:32.833Z,6.33
2018-06-10T14:18:38.380Z,5.67